»·PEaware :: N127CB KKNB-KLGB

N127CB :: KKNB-KLGB

FLIGHT INFORMATION

Flight Status: Arrived
Operator: Privately registered:
United States
More flights under this callsign
Pilot: Chris B. (15698)
Aircraft: Unknown
(SF50)
More flights by this aircraft type
Origin: KKNB Kanab Mun
United States
Destination: KLGB Long Beach
United States
More flights between these airports :: More routes between these airports
Route: +KACIR2 JALMA BCE J60 BLD J60 HEC KAYOH7
File this flight plan on PilotEdge
Remarks:
Altitude:
(Current/Filed)
18,000ft
Speed:
(Current/Filed)
300kts
Departed: 12-Oct-17 07:04 PM
Arrived: 12-Oct-17 09:11 PM
Distance/Time
Traveled:
335nm/2:06
Distance/Time
To Go:
Arrived

Flight Plot

Page will automatically refresh every two minutes.

Flight plan parsing failed; only flown route is shown


Map Options




Map Legend


Flown Route
Filed Route
Departure Airport
Arrival Airport
Navaid (VOR, NDB)
Fix

Horizontal Profiles

Position Reports

Time Latitude Longitude Heading Altitude Ground
Speed
12-Oct-17 18:43 37.010718 -112.529106 343 4872ft 0kts
12-Oct-17 18:44 37.010718 -112.529106 343 4872ft 0kts
12-Oct-17 18:45 37.010718 -112.529106 343 4872ft 0kts
12-Oct-17 18:46 37.010718 -112.529106 343 4872ft 0kts
12-Oct-17 18:47 37.010718 -112.529106 343 4872ft 0kts
12-Oct-17 18:48 37.010718 -112.529106 343 4872ft 0kts
12-Oct-17 18:49 37.010718 -112.529106 343 4872ft 0kts
12-Oct-17 18:50 37.010718 -112.529106 343 4872ft 0kts
12-Oct-17 18:51 37.010718 -112.529106 343 4872ft 0kts
12-Oct-17 18:52 37.010718 -112.529106 343 4872ft 0kts
12-Oct-17 18:53 37.010718 -112.529106 343 4872ft 0kts
12-Oct-17 18:54 37.010718 -112.529106 343 4872ft 0kts
12-Oct-17 18:55 37.010718 -112.529106 343 4872ft 0kts
12-Oct-17 18:56 37.010718 -112.529106 343 4872ft 0kts
12-Oct-17 18:57 37.010718 -112.529106 343 4872ft 0kts
12-Oct-17 18:58 37.010718 -112.529106 343 4872ft 0kts
12-Oct-17 18:59 37.010718 -112.529106 343 4872ft 0kts
12-Oct-17 19:00 37.010826 -112.529198 297 4872ft 4kts
12-Oct-17 19:01 37.010980 -112.530433 351 4872ft 0kts
12-Oct-17 19:02 37.011415 -112.530518 354 4872ft 8kts
12-Oct-17 19:03 37.012266 -112.530570 5 4872ft 13kts
12-Oct-17 19:04 37.018163 -112.527555 97 4872ft 14kts
12-Oct-17 19:05 37.018243 -112.527182 283 4872ft 0kts
12-Oct-17 19:06 37.018277 -112.527379 280 4872ft 8kts
12-Oct-17 19:07 37.018070 -112.527900 198 4872ft 0kts
12-Oct-17 19:08 37.003966 -112.533401 208 5363ft 100kts
12-Oct-17 19:09 36.974559 -112.544557 205 7172ft 122kts
12-Oct-17 19:10 36.938128 -112.553636 159 9023ft 166kts
12-Oct-17 19:11 36.913345 -112.495650 119 10880ft 207kts
12-Oct-17 19:12 36.894224 -112.425200 79 12003ft 268kts
12-Oct-17 19:13 36.924948 -112.362585 54 15303ft 185kts
12-Oct-17 19:14 36.954964 -112.307404 53 16830ft 197kts
12-Oct-17 19:15 36.989581 -112.298099 265 18337ft 121kts
12-Oct-17 19:16 36.976640 -112.335101 245 19869ft 117kts
12-Oct-17 19:17 36.960316 -112.378971 245 20000ft 157kts
12-Oct-17 19:18 36.940437 -112.432209 245 19994ft 179kts
12-Oct-17 19:19 36.918565 -112.490667 245 19991ft 192kts
12-Oct-17 19:20 36.895553 -112.552055 245 19989ft 198kts
12-Oct-17 19:21 36.871808 -112.615271 245 19987ft 202kts
12-Oct-17 19:22 36.848082 -112.678287 244 19996ft 204kts
12-Oct-17 19:24 36.823773 -112.742759 244 19995ft 206kts
12-Oct-17 19:25 36.799275 -112.807595 244 19994ft 207kts
12-Oct-17 19:26 36.774628 -112.872687 244 19993ft 208kts
12-Oct-17 19:27 36.749818 -112.938075 244 19992ft 209kts
12-Oct-17 19:28 36.724911 -113.003577 244 19992ft 210kts
12-Oct-17 19:29 36.699889 -113.069248 244 19991ft 210kts
12-Oct-17 19:30 36.674741 -113.135110 244 19990ft 211kts
12-Oct-17 19:31 36.649465 -113.201166 244 19989ft 211kts
12-Oct-17 19:32 36.624265 -113.266890 244 19989ft 211kts
12-Oct-17 19:33 36.599015 -113.332611 244 19976ft 211kts
12-Oct-17 19:34 36.573674 -113.398426 244 19943ft 212kts
12-Oct-17 19:35 36.548266 -113.464276 244 19909ft 212kts
12-Oct-17 19:36 36.522981 -113.529675 244 19877ft 212kts
12-Oct-17 19:37 36.497497 -113.595451 244 19875ft 211kts
12-Oct-17 19:38 36.472807 -113.659026 244 19882ft 210kts
12-Oct-17 19:39 36.447932 -113.722968 244 19883ft 211kts
12-Oct-17 19:40 36.422805 -113.787431 244 19882ft 212kts
12-Oct-17 19:41 36.397238 -113.852890 244 19881ft 212kts
12-Oct-17 19:42 36.371350 -113.918749 240 19877ft 212kts
12-Oct-17 19:43 36.336327 -113.977353 235 19880ft 212kts
12-Oct-17 19:44 36.303691 -114.031950 235 19876ft 212kts
12-Oct-17 19:45 36.268558 -114.090629 235 19869ft 212kts
12-Oct-17 19:46 36.233620 -114.148880 235 19863ft 212kts
12-Oct-17 19:47 36.198428 -114.207457 235 19860ft 212kts
12-Oct-17 19:48 36.163279 -114.265862 235 19858ft 211kts
12-Oct-17 19:49 36.128162 -114.324117 235 19858ft 211kts
12-Oct-17 19:50 36.093029 -114.382299 235 19857ft 211kts
12-Oct-17 19:51 36.058014 -114.440190 235 19856ft 211kts
12-Oct-17 19:52 36.023058 -114.497887 235 19856ft 210kts
12-Oct-17 19:53 35.988073 -114.555535 235 19855ft 210kts
12-Oct-17 19:54 35.952886 -114.613420 235 19854ft 210kts
12-Oct-17 19:55 35.923705 -114.661333 234 19861ft 210kts
12-Oct-17 19:56 35.889890 -114.716785 234 19867ft 212kts
12-Oct-17 19:57 35.854818 -114.774211 234 19866ft 213kts
12-Oct-17 19:58 35.819140 -114.832528 234 19865ft 214kts
12-Oct-17 19:59 35.784029 -114.889820 234 19865ft 214kts
12-Oct-17 20:00 35.748585 -114.947559 234 19864ft 214kts
12-Oct-17 20:01 35.712844 -115.005630 235 19865ft 214kts
12-Oct-17 20:02 35.676953 -115.063830 235 19866ft 214kts
12-Oct-17 20:03 35.641045 -115.121965 236 19868ft 214kts
12-Oct-17 20:04 35.604996 -115.180235 236 19869ft 215kts
12-Oct-17 20:05 35.568904 -115.238521 236 19870ft 216kts
12-Oct-17 20:06 35.532615 -115.297057 236 19869ft 216kts
12-Oct-17 20:07 35.496199 -115.355697 236 19868ft 216kts
12-Oct-17 20:08 35.459788 -115.414230 236 19868ft 216kts
12-Oct-17 20:09 35.423445 -115.472557 236 19867ft 216kts
12-Oct-17 20:10 35.387288 -115.530490 236 19866ft 216kts
12-Oct-17 20:11 35.350977 -115.588572 236 19866ft 215kts
12-Oct-17 20:12 35.314521 -115.646790 236 19865ft 215kts
12-Oct-17 20:13 35.286295 -115.691784 236 19874ft 216kts
12-Oct-17 20:14 35.250375 -115.748979 236 19876ft 217kts
12-Oct-17 20:15 35.213694 -115.807287 236 19877ft 218kts
12-Oct-17 20:16 35.177045 -115.865445 236 19879ft 218kts
12-Oct-17 20:17 35.140135 -115.923921 236 19880ft 218kts
12-Oct-17 20:18 35.103217 -115.982312 236 19880ft 218kts
12-Oct-17 20:19 35.066585 -116.040156 236 19879ft 217kts
12-Oct-17 20:20 35.029969 -116.097892 236 19879ft 217kts
12-Oct-17 20:21 34.993048 -116.156070 235 19882ft 217kts
12-Oct-17 20:22 34.956079 -116.214212 235 19882ft 218kts
12-Oct-17 20:23 34.918952 -116.272489 234 19875ft 218kts
12-Oct-17 20:24 34.886262 -116.323699 234 19869ft 219kts
12-Oct-17 20:25 34.861844 -116.361860 234 19861ft 220kts
12-Oct-17 20:26 34.824292 -116.420434 234 19851ft 221kts
12-Oct-17 20:27 34.785338 -116.477027 228 19988ft 217kts
12-Oct-17 20:28 34.742926 -116.529561 228 19988ft 219kts
12-Oct-17 20:29 34.699777 -116.582702 228 19709ft 231kts
12-Oct-17 20:30 34.652200 -116.641150 228 18719ft 249kts
12-Oct-17 20:31 34.615579 -116.686023 227 17878ft 216kts
12-Oct-17 20:31 34.573969 -116.737004 227 16838ft 200kts
12-Oct-17 20:33 34.529928 -116.790872 227 15693ft 194kts
12-Oct-17 20:34 34.492607 -116.836449 227 14712ft 193kts
12-Oct-17 20:34 34.461491 -116.874398 227 13894ft 194kts
12-Oct-17 20:36 34.415751 -116.930095 226 12995ft 213kts
12-Oct-17 20:37 34.376082 -116.978319 227 12980ft 228kts
12-Oct-17 20:37 34.339021 -117.023320 227 12971ft 233kts
12-Oct-17 20:38 34.294659 -117.077114 227 12965ft 237kts
12-Oct-17 20:39 34.241696 -117.115476 191 12965ft 245kts
12-Oct-17 20:40 34.176074 -117.126216 189 12722ft 257kts
12-Oct-17 20:41 34.105888 -117.136708 188 11808ft 275kts
12-Oct-17 20:42 34.032533 -117.147544 188 10979ft 276kts
12-Oct-17 20:43 33.971105 -117.176812 234 10960ft 229kts
12-Oct-17 20:44 33.936310 -117.235192 236 10119ft 218kts
12-Oct-17 20:45 33.902163 -117.292524 236 9144ft 216kts
12-Oct-17 20:46 33.874267 -117.339295 236 8341ft 215kts
12-Oct-17 20:47 33.841117 -117.394759 236 7954ft 191kts
12-Oct-17 20:48 33.812749 -117.442182 236 7957ft 172kts
12-Oct-17 20:49 33.785407 -117.487892 236 7540ft 184kts
12-Oct-17 20:50 33.780326 -117.548073 270 6780ft 199kts
12-Oct-17 20:51 33.780599 -117.618525 270 6014ft 223kts
12-Oct-17 20:52 33.781036 -117.675717 269 5951ft 211kts
12-Oct-17 20:53 33.781431 -117.733265 270 5958ft 207kts
12-Oct-17 20:54 33.781888 -117.800109 270 5119ft 220kts
12-Oct-17 20:55 33.782321 -117.869108 270 4200ft 224kts
12-Oct-17 20:56 33.782727 -117.941473 270 2908ft 234kts
12-Oct-17 20:57 33.783089 -118.013552 270 1944ft 207kts
12-Oct-17 20:58 33.770290 -118.063661 217 1967ft 158kts
12-Oct-17 20:59 33.734691 -118.064617 139 1971ft 147kts
12-Oct-17 21:00 33.707525 -118.031537 104 1964ft 139kts
12-Oct-17 21:01 33.731182 -118.019986 296 1979ft 145kts
12-Oct-17 21:02 33.750527 -118.065491 297 1969ft 158kts
12-Oct-17 21:03 33.739621 -118.093404 159 1961ft 136kts
12-Oct-17 21:04 33.725459 -118.052877 104 1972ft 139kts
12-Oct-17 21:05 33.704691 -118.015506 134 1970ft 138kts
12-Oct-17 21:06 33.680326 -117.980735 95 1959ft 138kts
12-Oct-17 21:07 33.702847 -117.972813 289 1962ft 123kts
12-Oct-17 21:08 33.708422 -118.001953 282 1969ft 123kts
12-Oct-17 21:09 33.725796 -118.036436 308 1970ft 123kts
12-Oct-17 21:10 33.748471 -118.066962 311 1971ft 123kts
12-Oct-17 21:11 33.767726 -118.099084 291 1790ft 132kts
12-Oct-17 21:12 33.789748 -118.118922 321 736ft 84kts
12-Oct-17 21:13 33.804754 -118.135614 312 334ft 83kts
12-Oct-17 21:14 33.817053 -118.150693 312 64ft 49kts
12-Oct-17 21:15 33.818559 -118.153596 268 64ft 0kts
12-Oct-17 21:16 33.818559 -118.153596 268 64ft 0kts
12-Oct-17 21:17 33.817594 -118.157072 223 64ft 23kts
12-Oct-17 21:18 33.812662 -118.157469 240 64ft 10kts
12-Oct-17 21:19 33.812644 -118.157600 268 64ft 0kts
12-Oct-17 21:20 33.812644 -118.157600 268 64ft 0kts
12-Oct-17 21:21 33.812644 -118.157600 268 64ft 0kts

Navigation Log

Ident Type
Flight plan parsing failed, navigation log unavailable